EVLA

Liepāja International Airport

Liepāja, Latvia
METAR EVLA 210420Z AUTO 00000KT 0500 R06/0600D R24/P2000N BR FEW016/// OVC061/// M08/M08 Q1011
Observed Flight Rules
Jan-21 @ 04:20 UTC (23 minutes ago) Instrument Flight Rules
Wind Visibility Clouds Conditions
Calm 499 meters
  • Few at 1,600' AGL
  • Overcast at 6,100' AGL
  • Mist
Temperatures Readings
Current -8°C / 18°F
Dewpoint -8°C / 18°F
Humidity 100%
Altimeter 29.85" Hg
Pressure 1011 hPa
Elevation 4
METAR EVLA 210420Z AUTO 00000KT 0500 R06/0600D R24/P2000N BR FEW016/// OVC061/// M08/M08 Q1011
Observed Flight Rules
Jan-21 @ 04:20 UTC
(23 minutes ago)
LIFR
Wind Visibility
Calm 499 meters
Clouds
  • Few at 1,600' AGL
  • Overcast at 6,100' AGL
Conditions
  • Mist
Temperature Dewpoint
-8°C / 18°F -8°C / 18°F
Humidity Altimeter Pressure
100% 29.85" Hg 1011 hPa